Time;durP1;ratioP1;P1;durP2;ratioP2;P2;SDS_P1;SDS_P2;PMS_P1;PMS_P2;Temp;Humidity;BMP_temperature;BMP_pressure;BME280_temperature;BME280_humidity;BME280_pressure;Samples;Min_cycle;Max_cycle;Signal;HPM_P1;HPM_P2
2022/08/29 00:00:22;;;;;;;0.00;0.00;;;19.30;88.20;;;;;;5033417;28;20393;-65
2022/08/29 00:02:52;;;;;;;0.00;0.00;;;19.20;88.60;;;;;;5051363;28;20029;-65
2022/08/29 00:05:22;;;;;;;5.07;1.25;;;19.20;88.70;;;;;;5033489;28;20033;-65
2022/08/29 00:07:48;;;;;;;0.00;0.00;;;19.20;89.30;;;;;;5033920;28;20108;-65
2022/08/29 00:10:14;;;;;;;0.00;0.00;;;19.20;88.90;;;;;;5051162;28;20159;-65
2022/08/29 00:12:41;;;;;;;0.35;0.35;;;19.20;89.30;;;;;;5051178;28;20033;-65
2022/08/29 00:15:10;;;;;;;0.00;0.00;;;19.30;88.90;;;;;;5033408;28;20056;-65
2022/08/29 00:17:36;;;;;;;1.27;0.52;;;19.30;88.80;;;;;;5016873;28;20036;-65
2022/08/29 00:20:05;;;;;;;1.42;1.30;;;19.20;89.00;;;;;;5050752;28;20033;-65
2022/08/29 00:22:31;;;;;;;0.00;0.00;;;19.20;89.00;;;;;;5033033;28;20029;-65
2022/08/29 00:25:01;;;;;;;0.00;0.00;;;19.20;89.20;;;;;;5033110;28;20102;-65
2022/08/29 00:27:27;;;;;;;0.00;0.00;;;19.20;89.30;;;;;;5050961;28;20025;-65
2022/08/29 00:29:53;;;;;;;3.92;0.45;;;19.10;89.40;;;;;;5033294;28;20044;-65
2022/08/29 00:32:19;;;;;;;0.00;0.00;;;19.00;89.60;;;;;;5051084;28;20025;-65
2022/08/29 00:34:44;;;;;;;0.00;0.00;;;19.10;89.80;;;;;;5049688;28;20123;-65
2022/08/29 00:37:10;;;;;;;5.40;0.45;;;19.00;89.90;;;;;;5049426;28;20037;-65
2022/08/29 00:39:36;;;;;;;0.80;0.38;;;18.90;90.00;;;;;;5050586;28;20033;-65
2022/08/29 00:42:02;;;;;;;0.00;0.00;;;18.80;90.20;;;;;;5050773;28;20029;-65
2022/08/29 00:44:28;;;;;;;0.35;0.35;;;18.80;90.20;;;;;;5016611;28;20440;-65
2022/08/29 00:46:58;;;;;;;2.38;0.57;;;18.70;90.40;;;;;;5055434;28;20028;-65
2022/08/29 00:49:47;;;;;;;1.25;0.32;;;18.70;90.50;;;;;;5039858;28;20079;-65
2022/08/29 00:52:28;;;;;;;0.10;0.10;;;18.60;90.60;;;;;;5039750;28;20035;-65
2022/08/29 00:54:55;;;;;;;0.00;0.00;;;18.60;90.60;;;;;;5040991;28;20036;-65
2022/08/29 00:57:22;;;;;;;0.10;0.10;;;18.60;90.70;;;;;;5057622;28;20056;-65
2022/08/29 00:59:50;;;;;;;0.20;0.20;;;18.60;90.70;;;;;;5039474;28;20044;-65
2022/08/29 01:02:16;;;;;;;0.00;0.00;;;18.60;90.80;;;;;;5022858;28;20025;-65
2022/08/29 01:04:42;;;;;;;0.00;0.00;;;18.60;91.00;;;;;;5034309;28;20054;-65
2022/08/29 01:07:10;;;;;;;0.00;0.00;;;18.60;91.00;;;;;;5027458;28;20095;-65
2022/08/29 01:09:38;;;;;;;0.68;0.40;;;18.50;91.10;;;;;;5035114;28;20071;-65
2022/08/29 01:12:15;;;;;;;0.30;0.30;;;18.40;91.40;;;;;;5039167;28;20543;-65
2022/08/29 01:15:06;;;;;;;0.00;0.00;;;18.40;91.50;;;;;;5055820;28;20124;-65
2022/08/29 01:17:41;;;;;;;1.65;1.20;;;18.40;91.60;;;;;;5003490;28;20033;-65
2022/08/29 01:20:39;;;;;;;0.05;0.00;;;18.40;91.80;;;;;;5020139;28;20033;-65
2022/08/29 01:23:32;;;;;;;0.30;0.22;;;18.40;91.70;;;;;;5021555;28;20041;-65
2022/08/29 01:26:00;;;;;;;0.90;0.70;;;18.40;91.80;;;;;;5040091;28;20060;-65
2022/08/29 01:28:31;;;;;;;0.00;0.00;;;18.40;91.80;;;;;;5039332;28;20056;-65
2022/08/29 01:31:06;;;;;;;;;;;18.30;91.90;;;;;;5057416;28;20071;-66
2022/08/29 01:33:52;;;;;;;0.25;0.20;;;18.30;92.00;;;;;;5056715;28;19909;-65
2022/08/29 01:36:25;;;;;;;0.20;0.20;;;18.30;92.30;;;;;;5039826;28;20383;-65
2022/08/29 01:38:51;;;;;;;0.25;0.25;;;18.20;92.50;;;;;;5056855;28;20037;-65
2022/08/29 01:41:19;;;;;;;0.00;0.00;;;18.10;92.50;;;;;;5029559;28;20041;-65
2022/08/29 01:43:50;;;;;;;0.70;0.52;;;18.10;92.70;;;;;;5018991;28;20037;-65
2022/08/29 01:46:21;;;;;;;0.00;0.00;;;18.10;92.80;;;;;;5019503;28;20362;-65
2022/08/29 01:48:47;;;;;;;0.38;0.35;;;18.10;93.00;;;;;;5036652;28;20032;-65
2022/08/29 01:51:15;;;;;;;1.73;0.68;;;18.20;93.00;;;;;;5036510;28;20037;-65
2022/08/29 01:53:41;;;;;;;0.00;0.00;;;18.20;93.00;;;;;;5018618;28;20041;-65
2022/08/29 01:56:15;;;;;;;0.10;0.10;;;18.10;93.00;;;;;;5019103;28;20071;-65
2022/08/29 01:58:42;;;;;;;0.68;0.68;;;18.10;93.20;;;;;;5016131;28;20076;-65
2022/08/29 02:01:11;;;;;;;0.38;0.20;;;18.00;93.20;;;;;;5033712;28;20468;-65
2022/08/29 02:03:37;;;;;;;0.00;0.00;;;18.00;93.50;;;;;;4999353;28;20473;-65
2022/08/29 02:06:03;;;;;;;0.00;0.00;;;18.00;93.70;;;;;;5033541;28;20112;-65
2022/08/29 02:08:30;;;;;;;2.15;1.58;;;18.00;93.80;;;;;;5033593;28;20034;-65
2022/08/29 02:10:57;;;;;;;0.63;0.52;;;18.00;93.60;;;;;;5033138;28;20053;-65
2022/08/29 02:13:23;;;;;;;0.00;0.00;;;18.00;93.80;;;;;;5033279;28;20021;-65
2022/08/29 02:15:50;;;;;;;0.95;0.75;;;17.90;93.80;;;;;;5028649;28;20029;-65
2022/08/29 02:18:17;;;;;;;0.00;0.00;;;17.90;94.00;;;;;;5053144;28;20031;-65
2022/08/29 02:20:44;;;;;;;0.00;0.00;;;17.90;94.20;;;;;;5034937;28;20029;-65
2022/08/29 02:23:10;;;;;;;0.93;0.85;;;17.90;94.30;;;;;;5035212;28;20036;-65
2022/08/29 02:25:42;;;;;;;0.32;0.32;;;17.80;94.40;;;;;;5053020;28;20048;-65
2022/08/29 02:28:10;;;;;;;0.00;0.00;;;17.80;94.60;;;;;;5053113;28;20032;-65
2022/08/29 02:30:39;;;;;;;0.00;0.00;;;17.80;94.70;;;;;;5052765;28;20054;-65
2022/08/29 02:33:05;;;;;;;0.00;0.00;;;17.80;94.60;;;;;;5051663;28;20032;-65
2022/08/29 02:35:31;;;;;;;0.00;0.00;;;17.80;94.80;;;;;;5052770;28;20464;-65
2022/08/29 02:37:57;;;;;;;0.10;0.10;;;17.80;94.80;;;;;;5053015;28;20112;-65
2022/08/29 02:40:25;;;;;;;1.00;0.85;;;17.80;94.90;;;;;;5034737;28;20128;-65
2022/08/29 02:42:52;;;;;;;3.20;0.75;;;17.80;94.90;;;;;;5035150;28;20061;-65
2022/08/29 02:45:19;;;;;;;0.00;0.00;;;17.80;95.00;;;;;;5052773;28;20041;-65
2022/08/29 02:47:45;;;;;;;0.22;0.10;;;17.70;95.20;;;;;;5052773;28;20469;-65
2022/08/29 02:50:12;;;;;;;0.10;0.10;;;17.70;95.20;;;;;;5052375;28;20120;-65
2022/08/29 02:52:40;;;;;;;0.50;0.50;;;17.60;95.30;;;;;;5034958;28;20045;-65
2022/08/29 02:55:08;;;;;;;0.00;0.00;;;17.60;95.60;;;;;;5035032;28;20405;-65
2022/08/29 02:57:34;;;;;;;0.35;0.35;;;17.50;95.70;;;;;;5034617;28;20029;-65
2022/08/29 02:59:59;;;;;;;0.28;0.28;;;17.50;95.80;;;;;;5051976;28;20086;-65
2022/08/29 03:02:26;;;;;;;0.00;0.00;;;17.60;95.90;;;;;;5052499;28;20509;-65
2022/08/29 03:04:52;;;;;;;0.00;0.00;;;17.60;96.00;;;;;;5034390;28;20388;-65
2022/08/29 03:07:18;;;;;;;0.25;0.25;;;17.50;95.90;;;;;;5034502;28;20024;-65
2022/08/29 03:09:44;;;;;;;0.28;0.28;;;17.60;96.10;;;;;;5033034;28;20112;-65
2022/08/29 03:12:09;;;;;;;1.98;1.65;;;17.50;96.20;;;;;;5051946;28;20634;-64
2022/08/29 03:14:36;;;;;;;0.75;0.38;;;17.50;96.30;;;;;;5047741;28;20470;-65
2022/08/29 03:17:02;;;;;;;0.10;0.10;;;17.50;96.40;;;;;;5032112;28;20034;-65
2022/08/29 03:19:27;;;;;;;0.43;0.43;;;17.40;96.60;;;;;;5031829;28;20062;-65
2022/08/29 03:21:55;;;;;;;0.00;0.00;;;17.40;96.60;;;;;;5031750;28;20037;-64
2022/08/29 03:24:21;;;;;;;0.03;0.03;;;17.40;96.80;;;;;;5014181;28;20104;-65
2022/08/29 03:26:47;;;;;;;0.40;0.40;;;17.40;96.90;;;;;;5014253;28;20470;-64
2022/08/29 03:29:12;;;;;;;0.00;0.00;;;17.40;97.00;;;;;;5031607;28;20108;-64
2022/08/29 03:31:38;;;;;;;0.15;0.15;;;17.30;97.10;;;;;;5031945;28;20396;-65
2022/08/29 03:34:04;;;;;;;5.28;0.35;;;17.30;97.50;;;;;;5031581;28;20034;-65
2022/08/29 03:36:31;;;;;;;0.05;0.05;;;17.30;97.30;;;;;;5014077;28;20037;-65
2022/08/29 03:38:57;;;;;;;0.00;0.00;;;17.20;97.40;;;;;;5013897;28;20121;-65
2022/08/29 03:41:26;;;;;;;0.40;0.40;;;17.20;97.50;;;;;;5031614;28;20124;-65
2022/08/29 03:43:58;;;;;;;0.00;0.00;;;17.20;97.70;;;;;;5013833;28;20029;-64
2022/08/29 03:46:26;;;;;;;3.55;1.58;;;17.10;98.00;;;;;;5031541;28;20053;-65
2022/08/29 03:48:51;;;;;;;0.00;0.00;;;17.10;98.10;;;;;;5031215;28;20029;-65
2022/08/29 03:51:19;;;;;;;0.00;0.00;;;17.00;98.30;;;;;;5013614;28;20033;-65
2022/08/29 03:53:45;;;;;;;0.00;0.00;;;17.00;98.60;;;;;;5013812;28;20033;-64
2022/08/29 03:56:12;;;;;;;0.00;0.00;;;16.90;98.80;;;;;;5014048;28;20033;-65
2022/08/29 03:58:38;;;;;;;0.47;0.28;;;16.80;99.30;;;;;;5008248;28;20029;-65
2022/08/29 04:01:04;;;;;;;0.10;0.10;;;16.80;99.20;;;;;;5046548;28;20020;-65
2022/08/29 04:03:31;;;;;;;0.00;0.00;;;16.80;99.40;;;;;;5069165;28;20031;-65
2022/08/29 04:05:57;;;;;;;0.00;0.00;;;16.80;99.60;;;;;;5071099;28;20043;-65
2022/08/29 04:08:23;;;;;;;0.85;0.85;;;16.80;99.70;;;;;;5052127;28;20029;-65
2022/08/29 04:10:48;;;;;;;0.73;0.55;;;16.70;99.80;;;;;;5016685;28;20086;-65
2022/08/29 04:13:14;;;;;;;0.00;0.00;;;16.80;99.90;;;;;;5050609;28;20037;-65
2022/08/29 04:15:41;;;;;;;2.65;1.75;;;16.80;99.90;;;;;;5039214;28;20045;-65
2022/08/29 04:18:09;;;;;;;0.20;0.20;;;16.70;99.90;;;;;;5029583;28;20044;-65
2022/08/29 04:20:40;;;;;;;0.10;0.10;;;16.80;99.90;;;;;;5012567;28;20072;-65
2022/08/29 04:23:06;;;;;;;0.03;0.03;;;16.80;99.90;;;;;;5029314;28;20029;-66
2022/08/29 04:25:35;;;;;;;0.00;0.00;;;16.80;99.90;;;;;;5030625;28;20108;-63
2022/08/29 04:28:06;;;;;;;0.08;0.08;;;16.80;99.80;;;;;;5031145;28;20052;-64
2022/08/29 04:30:33;;;;;;;7.82;2.17;;;16.90;99.70;;;;;;5017003;28;20158;-64
2022/08/29 04:33:00;;;;;;;0.30;0.22;;;16.90;99.60;;;;;;5032706;28;20017;-64
2022/08/29 04:35:26;;;;;;;0.45;0.45;;;16.90;99.80;;;;;;5050136;28;20495;-64
2022/08/29 04:37:52;;;;;;;0.00;0.00;;;16.80;99.90;;;;;;5032737;28;20033;-63
2022/08/29 04:40:21;;;;;;;0.17;0.15;;;16.80;99.90;;;;;;5050184;28;20037;-63
2022/08/29 04:42:48;;;;;;;0.22;0.22;;;16.80;99.90;;;;;;5050377;28;20120;-63
2022/08/29 04:45:19;;;;;;;0.00;0.00;;;16.80;99.90;;;;;;5050322;28;20733;-63
2022/08/29 04:47:45;;;;;;;0.00;0.00;;;16.70;99.90;;;;;;5032936;28;20032;-63
2022/08/29 04:50:17;;;;;;;0.10;0.10;;;16.60;99.90;;;;;;5032166;28;20029;-63
2022/08/29 04:52:43;;;;;;;0.08;0.08;;;16.60;99.90;;;;;;5030777;28;20056;-63
2022/08/29 04:55:10;;;;;;;0.10;0.10;;;16.70;99.90;;;;;;5029970;28;20494;-64
2022/08/29 04:57:37;;;;;;;0.00;0.00;;;16.90;99.90;;;;;;5028801;28;20033;-64
2022/08/29 05:00:10;;;;;;;0.03;0.03;;;16.90;99.90;;;;;;5045786;28;20413;-64
2022/08/29 05:02:36;;;;;;;0.00;0.00;;;16.90;99.90;;;;;;5032911;28;20029;-65
2022/08/29 05:05:02;;;;;;;0.35;0.35;;;16.90;99.90;;;;;;5049873;28;20083;-65
2022/08/29 05:07:28;;;;;;;0.22;0.17;;;17.00;99.90;;;;;;5049972;28;20040;-64
2022/08/29 05:10:10;;;;;;;0.05;0.05;;;17.00;99.90;;;;;;5027095;28;20028;-65
2022/08/29 05:12:36;;;;;;;0.00;0.00;;;17.00;99.90;;;;;;5044177;28;20059;-64
2022/08/29 05:15:05;;;;;;;0.00;0.00;;;17.00;99.90;;;;;;5033567;28;20033;-65
2022/08/29 05:17:31;;;;;;;0.00;0.00;;;16.90;99.90;;;;;;5050994;28;20059;-65
2022/08/29 05:19:57;;;;;;;0.20;0.20;;;16.90;99.90;;;;;;5059444;28;20044;-67
2022/08/29 05:22:23;;;;;;;0.00;0.00;;;16.90;99.90;;;;;;5068879;28;20032;-67
2022/08/29 05:24:49;;;;;;;0.47;0.47;;;16.80;99.90;;;;;;5050893;28;20035;-67
2022/08/29 05:27:19;;;;;;;0.08;0.08;;;16.80;99.90;;;;;;5040839;28;20028;-68
2022/08/29 05:29:48;;;;;;;0.00;0.00;;;16.80;99.90;;;;;;5064120;28;20556;-67
2022/08/29 05:32:14;;;;;;;0.00;0.00;;;16.70;99.90;;;;;;5044704;28;20040;-68
2022/08/29 05:34:42;;;;;;;0.28;0.22;;;16.60;99.90;;;;;;5063791;28;20135;-69
2022/08/29 05:37:13;;;;;;;0.00;0.00;;;16.60;99.90;;;;;;5054402;28;20147;-68
2022/08/29 05:39:40;;;;;;;0.10;0.10;;;16.60;99.90;;;;;;5027153;28;20107;-69
2022/08/29 05:42:08;;;;;;;0.00;0.00;;;16.60;99.90;;;;;;5052643;28;20032;-69
2022/08/29 05:44:35;;;;;;;0.00;0.00;;;16.60;99.90;;;;;;5034856;28;20056;-68
2022/08/29 05:47:08;;;;;;;0.03;0.03;;;16.60;99.90;;;;;;5034901;28;20025;-68
2022/08/29 05:49:39;;;;;;;0.00;0.00;;;16.60;99.90;;;;;;5034772;28;20025;-68
2022/08/29 05:52:06;;;;;;;0.00;0.00;;;16.60;99.90;;;;;;5052052;28;20021;-68
2022/08/29 05:54:35;;;;;;;0.75;0.60;;;16.60;99.90;;;;;;5052501;28;20120;-68
2022/08/29 05:57:01;;;;;;;0.13;0.13;;;16.70;99.90;;;;;;5052313;28;20033;-68
2022/08/29 05:59:27;;;;;;;0.00;0.00;;;16.90;99.90;;;;;;5052143;28;20029;-68
2022/08/29 06:01:53;;;;;;;0.52;0.52;;;16.90;99.90;;;;;;5050784;28;20043;-67
2022/08/29 06:04:18;;;;;;;0.45;0.45;;;17.10;99.90;;;;;;5048986;28;20385;-68
2022/08/29 06:06:44;;;;;;;4.93;0.45;;;17.30;99.90;;;;;;5052426;28;20225;-67
2022/08/29 06:09:12;;;;;;;0.00;0.00;;;17.20;99.90;;;;;;5052362;28;20826;-68
2022/08/29 06:11:38;;;;;;;1.08;0.90;;;17.20;99.90;;;;;;5057105;28;20040;-67
2022/08/29 06:14:04;;;;;;;0.08;0.08;;;17.30;99.90;;;;;;5034480;28;20037;-68
2022/08/29 06:16:31;;;;;;;0.10;0.10;;;17.50;99.80;;;;;;5064613;28;20094;-68
2022/08/29 06:18:58;;;;;;;0.45;0.45;;;17.50;99.90;;;;;;5063134;28;20070;-68
2022/08/29 06:21:24;;;;;;;25.65;3.05;;;17.40;99.80;;;;;;5065639;28;20121;-68
2022/08/29 06:23:50;;;;;;;0.90;0.55;;;17.30;99.90;;;;;;5053111;28;20502;-68
2022/08/29 06:26:18;;;;;;;0.00;0.00;;;17.40;99.90;;;;;;5071289;28;20033;-68
2022/08/29 06:28:45;;;;;;;3.10;0.40;;;17.50;99.90;;;;;;5047161;28;20812;-68
2022/08/29 06:31:13;;;;;;;0.00;0.00;;;17.70;99.90;;;;;;5051457;28;20039;-65
2022/08/29 06:33:39;;;;;;;9.95;0.75;;;17.80;99.60;;;;;;5051461;28;20029;-65
2022/08/29 06:36:07;;;;;;;3.40;0.25;;;17.80;99.60;;;;;;5051905;28;20108;-64
2022/08/29 06:38:33;;;;;;;1.38;0.63;;;17.80;99.30;;;;;;5027055;28;20123;-64
2022/08/29 06:41:09;;;;;;;0.10;0.10;;;17.80;99.20;;;;;;5062272;28;20029;-64
2022/08/29 06:43:35;;;;;;;0.00;0.00;;;17.90;99.10;;;;;;5055908;28;20465;-64
2022/08/29 06:46:02;;;;;;;1.45;1.27;;;18.00;99.00;;;;;;5033854;28;20583;-63
2022/08/29 06:48:29;;;;;;;2.90;1.17;;;18.00;98.90;;;;;;5037603;28;20111;-63
2022/08/29 06:50:54;;;;;;;0.22;0.22;;;18.20;98.90;;;;;;5071618;28;20526;-63
2022/08/29 06:53:21;;;;;;;0.00;0.00;;;18.40;98.30;;;;;;5053960;28;20024;-64
2022/08/29 06:55:47;;;;;;;0.73;0.20;;;18.40;98.20;;;;;;5060959;28;20452;-63
2022/08/29 06:58:13;;;;;;;0.00;0.00;;;18.50;98.00;;;;;;5032528;28;20104;-63
2022/08/29 07:00:43;;;;;;;0.90;0.80;;;18.50;98.20;;;;;;5051491;28;20112;-63
2022/08/29 07:03:10;;;;;;;1.20;0.43;;;18.60;97.90;;;;;;5067841;28;20031;-63
2022/08/29 07:05:35;;;;;;;3.53;0.43;;;18.70;98.00;;;;;;5027171;28;20095;-63
2022/08/29 07:08:02;;;;;;;3.78;1.35;;;18.80;97.70;;;;;;5041327;28;20060;-63
2022/08/29 07:10:28;;;;;;;0.05;0.05;;;18.90;97.60;;;;;;5053198;28;20103;-64
2022/08/29 07:12:54;;;;;;;2.97;0.65;;;19.00;97.50;;;;;;5071311;28;20087;-63
2022/08/29 07:15:22;;;;;;;0.00;0.00;;;19.10;97.00;;;;;;5053682;28;20484;-63
2022/08/29 07:17:49;;;;;;;0.03;0.03;;;19.10;97.00;;;;;;5053572;28;20032;-63
2022/08/29 07:20:16;;;;;;;0.00;0.00;;;19.20;96.80;;;;;;5039529;28;20032;-63
2022/08/29 07:22:44;;;;;;;0.00;0.00;;;19.20;96.60;;;;;;5050378;28;20047;-64
2022/08/29 07:25:10;;;;;;;0.00;0.00;;;19.50;97.00;;;;;;5051762;28;20039;-63
2022/08/29 07:27:36;;;;;;;0.38;0.20;;;19.60;96.70;;;;;;5049448;28;20029;-64
2022/08/29 07:30:06;;;;;;;0.20;0.20;;;19.60;96.50;;;;;;5032831;28;20024;-64
2022/08/29 07:32:31;;;;;;;0.20;0.20;;;19.60;96.30;;;;;;5033064;28;20112;-64
2022/08/29 07:34:57;;;;;;;0.98;0.88;;;19.60;96.70;;;;;;5038272;28;20111;-63
2022/08/29 07:37:24;;;;;;;0.63;0.40;;;19.70;96.30;;;;;;5057903;28;20554;-62
2022/08/29 07:39:50;;;;;;;0.00;0.00;;;19.80;96.30;;;;;;5053902;28;20059;-65
2022/08/29 07:42:16;;;;;;;0.20;0.20;;;20.00;96.10;;;;;;5044911;28;20032;-65
2022/08/29 07:44:42;;;;;;;0.65;0.65;;;20.20;95.80;;;;;;5049178;28;20033;-66
2022/08/29 07:47:07;;;;;;;0.00;0.00;;;20.30;96.10;;;;;;5059153;28;20330;-65
2022/08/29 07:49:33;;;;;;;0.95;0.43;;;20.50;95.30;;;;;;5064244;28;20451;-65
2022/08/29 07:51:59;;;;;;;0.43;0.43;;;20.70;95.10;;;;;;5054601;28;20025;-64
2022/08/29 07:54:25;;;;;;;0.10;0.10;;;20.80;94.60;;;;;;5045249;28;20022;-66
2022/08/29 07:56:52;;;;;;;0.10;0.10;;;20.90;94.60;;;;;;5032968;28;20037;-64
2022/08/29 07:59:19;;;;;;;1.55;0.45;;;20.90;94.30;;;;;;5050910;28;20047;-64
2022/08/29 08:01:45;;;;;;;0.00;0.00;;;21.00;94.50;;;;;;5044684;28;20068;-65
2022/08/29 08:04:12;;;;;;;1.67;0.43;;;21.10;94.30;;;;;;5039975;28;20131;-64
2022/08/29 08:06:41;;;;;;;0.05;0.05;;;21.30;93.90;;;;;;5058305;28;20028;-65
2022/08/29 08:09:08;;;;;;;0.00;0.00;;;21.40;94.10;;;;;;5052510;28;20024;-64
2022/08/29 08:11:35;;;;;;;4.28;0.60;;;21.50;93.70;;;;;;5054105;28;20029;-65
2022/08/29 08:14:02;;;;;;;4.47;2.22;;;21.70;93.40;;;;;;5033349;28;20036;-65
2022/08/29 08:16:29;;;;;;;0.10;0.10;;;21.80;93.30;;;;;;5045302;28;20062;-65
2022/08/29 08:18:55;;;;;;;0.13;0.03;;;21.80;93.10;;;;;;5047707;28;20024;-66
2022/08/29 08:21:23;;;;;;;0.00;0.00;;;21.90;93.20;;;;;;5043846;23;20049;-65
2022/08/29 08:23:49;;;;;;;0.10;0.10;;;22.00;93.10;;;;;;5028364;28;20028;-65
2022/08/29 08:26:16;;;;;;;2.47;0.82;;;21.90;92.80;;;;;;5043445;28;20028;-65
2022/08/29 08:28:42;;;;;;;0.20;0.20;;;22.10;93.20;;;;;;5035773;28;20516;-66
2022/08/29 08:31:11;;;;;;;4.38;0.20;;;22.30;92.50;;;;;;5034864;28;20072;-66
2022/08/29 08:33:38;;;;;;;0.70;0.13;;;22.40;91.60;;;;;;5030029;28;20029;-66
2022/08/29 08:36:14;;;;;;;0.10;0.10;;;22.50;91.80;;;;;;5042826;28;20029;-66
2022/08/29 08:38:40;;;;;;;0.75;0.32;;;22.40;92.00;;;;;;5028021;28;20112;-64
2022/08/29 08:41:43;;;;;;;21.98;1.00;;;22.60;91.60;;;;;;5021926;28;20401;-66
2022/08/29 08:44:21;;;;;;;0.90;0.65;;;22.60;91.40;;;;;;5029774;28;20034;-66
2022/08/29 08:46:57;;;;;;;0.00;0.00;;;22.90;91.30;;;;;;5022443;28;20021;-65
2022/08/29 08:49:34;;;;;;;0.52;0.52;;;23.00;91.00;;;;;;5029127;28;20034;-65
2022/08/29 08:52:08;;;;;;;0.00;0.00;;;23.00;91.10;;;;;;5038767;28;20100;-65
2022/08/29 08:54:45;;;;;;;0.10;0.03;;;23.00;90.80;;;;;;5015555;28;20428;-65
2022/08/29 08:57:13;;;;;;;0.22;0.22;;;23.10;90.60;;;;;;5036632;28;20030;-66
2022/08/29 08:59:45;;;;;;;0.30;0.30;;;23.30;90.20;;;;;;5022745;28;20037;-65
2022/08/29 09:02:16;;;;;;;1.63;1.52;;;23.40;90.10;;;;;;5025789;28;20025;-65
2022/08/29 09:04:57;;;;;;;0.95;0.63;;;23.50;90.30;;;;;;5045341;28;20079;-65
2022/08/29 09:08:00;;;;;;;0.85;0.82;;;23.50;90.20;;;;;;5038416;28;20041;-64
2022/08/29 09:10:43;;;;;;;3.55;1.55;;;23.60;90.70;;;;;;5045627;28;20037;-66
2022/08/29 09:13:37;;;;;;;0.28;0.28;;;23.50;90.30;;;;;;5045906;28;20081;-66
2022/08/29 09:16:26;;;;;;;0.00;0.00;;;23.80;89.20;;;;;;5044318;28;20040;-65
2022/08/29 09:18:55;;;;;;;3.67;0.75;;;23.80;89.10;;;;;;5030351;28;20075;-66
2022/08/29 09:21:22;;;;;;;3.10;0.52;;;23.90;88.50;;;;;;5011994;28;20036;-66
2022/08/29 09:23:54;;;;;;;0.10;0.10;;;23.90;89.00;;;;;;5052919;28;20032;-66
2022/08/29 09:26:22;;;;;;;0.35;0.10;;;23.80;88.20;;;;;;5041522;28;20041;-66
2022/08/29 09:28:48;;;;;;;0.10;0.10;;;23.80;88.50;;;;;;5028831;28;20749;-65
2022/08/29 09:31:27;;;;;;;0.63;0.40;;;23.90;89.30;;;;;;5038138;28;20057;-66
2022/08/29 09:33:57;;;;;;;0.60;0.40;;;23.90;88.90;;;;;;5046878;28;20039;-66
2022/08/29 09:36:51;;;;;;;0.00;0.00;;;23.90;87.60;;;;;;5041939;28;20382;-66
2022/08/29 09:39:27;;;;;;;0.00;0.00;;;24.00;87.60;;;;;;5033527;28;20464;-65
2022/08/29 09:42:13;;;;;;;1.95;0.80;;;24.20;87.60;;;;;;5033236;28;20127;-66
2022/08/29 09:44:49;;;;;;;0.10;0.10;;;24.40;86.80;;;;;;5016927;28;20037;-66
2022/08/29 09:47:26;;;;;;;0.10;0.10;;;24.30;86.40;;;;;;5048436;28;20043;-66
2022/08/29 09:50:18;;;;;;;2.45;0.43;;;24.50;86.30;;;;;;5052494;28;20021;-66
2022/08/29 09:52:57;;;;;;;0.20;0.20;;;24.40;85.60;;;;;;5040881;28;20028;-66
2022/08/29 09:55:44;;;;;;;0.00;0.00;;;24.50;85.90;;;;;;5044328;28;20065;-65
2022/08/29 09:58:32;;;;;;;2.72;0.17;;;24.60;85.90;;;;;;5037039;28;20443;-66
2022/08/29 10:01:16;;;;;;;0.95;0.70;;;24.50;85.00;;;;;;5038745;28;20064;-66
2022/08/29 10:04:02;;;;;;;0.28;0.25;;;24.50;85.40;;;;;;5045141;28;20098;-67
2022/08/29 10:06:39;;;;;;;0.00;0.00;;;24.50;85.50;;;;;;5046704;28;20366;-66
2022/08/29 10:09:11;;;;;;;1.73;0.30;;;24.70;85.20;;;;;;5031368;28;20017;-65
2022/08/29 10:12:02;;;;;;;0.30;0.30;;;24.90;85.20;;;;;;5040469;28;20088;-66
2022/08/29 10:14:39;;;;;;;0.73;0.52;;;25.10;85.10;;;;;;5002740;28;20039;-66
2022/08/29 10:20:10;;;;;;;0.10;0.10;;;25.40;84.40;;;;;;5039893;28;20033;-66
2022/08/29 10:23:06;;;;;;;0.00;0.00;;;25.30;83.40;;;;;;5051046;28;20112;-66
2022/08/29 10:25:40;;;;;;;0.15;0.15;;;25.40;83.50;;;;;;5040079;28;20029;-66
2022/08/29 10:28:34;;;;;;;0.10;0.10;;;25.60;83.40;;;;;;5046262;28;20029;-65
2022/08/29 10:31:17;;;;;;;0.43;0.40;;;25.90;82.90;;;;;;5042334;28;20363;-65
2022/08/29 10:34:01;;;;;;;1.88;1.40;;;26.20;82.50;;;;;;5050776;28;20123;-65
2022/08/29 10:36:42;;;;;;;0.65;0.63;;;26.20;82.10;;;;;;5033730;28;20523;-65
2022/08/29 10:39:26;;;;;;;0.43;0.43;;;26.40;81.00;;;;;;5016895;28;20037;-66
2022/08/29 10:42:01;;;;;;;0.10;0.10;;;26.40;80.60;;;;;;5040768;28;20021;-64
2022/08/29 10:44:54;;;;;;;0.00;0.00;;;26.50;79.80;;;;;;5045066;28;20034;-64
2022/08/29 10:47:39;;;;;;;0.30;0.30;;;26.90;80.10;;;;;;5048526;28;20059;-65
2022/08/29 10:50:23;;;;;;;1.33;0.82;;;27.20;78.90;;;;;;5043242;28;20026;-65
2022/08/29 10:53:13;;;;;;;0.88;0.45;;;27.40;78.20;;;;;;5042358;28;20032;-64
2022/08/29 10:55:56;;;;;;;0.10;0.10;;;27.60;78.20;;;;;;5046002;28;20396;-65
2022/08/29 10:58:49;;;;;;;3.53;1.02;;;27.50;77.70;;;;;;5031524;28;20119;-64
2022/08/29 11:01:46;;;;;;;0.25;0.20;;;27.70;78.30;;;;;;5030282;28;20025;-64
2022/08/29 11:04:35;;;;;;;0.20;0.20;;;27.60;74.30;;;;;;5047749;28;20048;-66
2022/08/29 11:07:08;;;;;;;1.60;0.83;;;27.30;75.70;;;;;;5019759;28;20026;-65
2022/08/29 11:09:49;;;;;;;0.15;0.15;;;27.80;75.30;;;;;;5045430;28;20475;-65
2022/08/29 11:12:25;;;;;;;0.00;0.00;;;28.10;74.80;;;;;;5018029;28;20128;-65
2022/08/29 11:15:08;;;;;;;0.10;0.10;;;28.50;73.80;;;;;;5038060;28;20187;-65
2022/08/29 11:17:41;;;;;;;0.57;0.28;;;28.30;71.30;;;;;;5018887;28;20512;-65
2022/08/29 11:20:23;;;;;;;0.10;0.10;;;28.40;71.60;;;;;;5030154;28;20026;-65
2022/08/29 11:23:06;;;;;;;0.10;0.10;;;28.70;71.70;;;;;;5043254;28;20033;-65
2022/08/29 11:25:34;;;;;;;0.65;0.47;;;28.60;71.10;;;;;;5036595;28;20064;-65
2022/08/29 11:28:35;;;;;;;0.20;0.17;;;29.00;71.50;;;;;;5031640;28;20049;-65
2022/08/29 11:31:21;;;;;;;0.85;0.75;;;29.10;69.80;;;;;;5026970;28;20052;-65
2022/08/29 11:34:12;;;;;;;1.95;0.25;;;29.20;69.10;;;;;;5045837;28;20164;-65
2022/08/29 11:37:12;;;;;;;29.13;1.45;;;28.70;70.00;;;;;;5025871;28;20034;-65
2022/08/29 11:40:01;;;;;;;0.38;0.30;;;29.00;70.10;;;;;;5019742;28;20017;-66
2022/08/29 11:42:33;;;;;;;0.35;0.32;;;29.40;69.50;;;;;;5015052;28;20025;-65
2022/08/29 11:45:02;;;;;;;0.85;0.65;;;29.60;69.30;;;;;;5021175;28;20037;-65
2022/08/29 11:47:57;;;;;;;0.45;0.32;;;29.60;70.10;;;;;;5048697;28;20029;-65
2022/08/29 11:50:35;;;;;;;0.85;0.60;;;29.80;69.40;;;;;;5040636;28;20036;-65
2022/08/29 11:53:21;;;;;;;0.40;0.28;;;29.90;69.50;;;;;;5031240;28;20025;-65
2022/08/29 11:56:11;;;;;;;0.57;0.40;;;30.20;68.20;;;;;;5019391;28;20115;-65
2022/08/29 11:58:41;;;;;;;0.52;0.47;;;29.10;67.50;;;;;;5035235;28;20084;-65
2022/08/29 12:01:35;;;;;;;0.80;0.75;;;29.30;68.10;;;;;;5029091;28;20504;-65
2022/08/29 12:04:08;;;;;;;0.20;0.20;;;28.90;67.80;;;;;;5032299;28;20096;-64
2022/08/29 12:06:57;;;;;;;0.03;0.03;;;29.60;69.30;;;;;;5044092;28;20029;-65
2022/08/29 12:09:37;;;;;;;0.80;0.70;;;30.00;68.30;;;;;;5041394;28;20033;-65
2022/08/29 12:12:11;;;;;;;0.15;0.15;;;29.70;66.70;;;;;;5036608;28;20135;-65
2022/08/29 12:14:48;;;;;;;0.20;0.15;;;30.00;68.50;;;;;;5029687;28;20090;-65
2022/08/29 12:17:28;;;;;;;0.65;0.45;;;30.60;66.70;;;;;;5020770;28;20040;-65
2022/08/29 12:20:04;;;;;;;0.22;0.20;;;30.60;66.20;;;;;;5041417;28;20489;-66
2022/08/29 12:23:13;;;;;;;0.38;0.20;;;30.70;65.50;;;;;;5031362;28;20118;-66
2022/08/29 12:25:50;;;;;;;3.67;0.75;;;29.70;66.30;;;;;;5018027;28;20057;-65
2022/08/29 12:28:19;;;;;;;0.52;0.45;;;30.30;66.80;;;;;;5034216;28;20068;-66
2022/08/29 12:30:48;;;;;;;2.95;1.45;;;30.70;65.00;;;;;;5034533;28;20036;-65
2022/08/29 12:33:51;;;;;;;5.47;0.43;;;30.90;64.50;;;;;;5025025;28;20048;-65
2022/08/29 12:36:25;;;;;;;0.10;0.10;;;31.30;64.20;;;;;;5026948;28;20037;-65
2022/08/29 12:39:12;;;;;;;0.20;0.20;;;31.40;64.00;;;;;;5030372;28;20076;-65
2022/08/29 12:41:59;;;;;;;1.15;0.70;;;30.90;64.40;;;;;;5043912;28;20048;-65
2022/08/29 12:44:42;;;;;;;20.05;0.68;;;31.60;64.40;;;;;;5040104;28;20059;-65
2022/08/29 12:47:26;;;;;;;8.88;0.65;;;31.60;62.80;;;;;;5042771;28;20473;-65
2022/08/29 12:49:57;;;;;;;0.13;0.13;;;32.00;63.00;;;;;;5037980;28;20044;-65
2022/08/29 12:52:34;;;;;;;0.20;0.20;;;32.20;62.90;;;;;;5012397;28;20056;-66
2022/08/29 12:55:26;;;;;;;0.25;0.15;;;32.20;62.40;;;;;;5033906;28;20504;-65
2022/08/29 12:57:52;;;;;;;0.63;0.30;;;31.10;62.80;;;;;;5029459;28;20072;-65
2022/08/29 13:00:26;;;;;;;0.35;0.30;;;31.30;63.90;;;;;;5033348;28;20503;-65
2022/08/29 13:03:08;;;;;;;0.45;0.45;;;30.70;63.40;;;;;;5028268;28;20041;-66
2022/08/29 13:05:38;;;;;;;3.03;0.35;;;30.60;63.40;;;;;;5035172;28;20051;-66
2022/08/29 13:08:13;;;;;;;;;;;31.40;63.10;;;;;;5007055;28;20048;-65
2022/08/29 13:10:52;;;;;;;0.30;0.10;;;31.90;62.50;;;;;;5032526;28;19963;-65
2022/08/29 13:13:21;;;;;;;0.88;0.88;;;32.70;60.80;;;;;;5029446;28;20040;-66
2022/08/29 13:15:53;;;;;;;0.30;0.30;;;32.90;60.90;;;;;;5035961;28;20026;-65